Time;durP1;ratioP1;P1;durP2;ratioP2;P2;SDS_P1;SDS_P2;PMS_P1;PMS_P2;Temp;Humidity;BMP_temperature;BMP_pressure;BME280_temperature;BME280_humidity;BME280_pressure;Samples;Min_cycle;Max_cycle;Signal;HPM_P1;HPM_P2
2023/08/28 00:02:14;;;;;;;;;;;18.60;99.90;;;;;;5030800;28;19925;-70
2023/08/28 00:04:42;;;;;;;;;;;18.70;99.90;;;;;;5051263;28;19925;-72
2023/08/28 00:07:10;;;;;;;;;;;18.50;99.90;;;;;;5054651;28;19929;-71
2023/08/28 00:09:39;;;;;;;;;;;18.40;99.90;;;;;;5054706;28;19932;-70
2023/08/28 00:12:07;;;;;;;;;;;18.10;99.90;;;;;;5053203;28;19932;-70
2023/08/28 00:14:35;;;;;;;;;;;17.90;99.90;;;;;;5054377;28;19932;-70
2023/08/28 00:17:04;;;;;;;;;;;17.70;99.90;;;;;;5054323;28;19932;-70
2023/08/28 00:19:33;;;;;;;;;;;17.20;99.90;;;;;;5053589;28;19932;-71
2023/08/28 00:22:01;;;;;;;;;;;16.90;99.90;;;;;;5053730;28;19925;-70
2023/08/28 00:24:29;;;;;;;;;;;16.60;99.90;;;;;;5054376;28;19925;-70
2023/08/28 00:26:58;;;;;;;;;;;16.40;99.90;;;;;;5054220;28;19929;-71
2023/08/28 00:29:26;;;;;;;;;;;16.30;99.90;;;;;;5050139;28;19932;-71
2023/08/28 00:31:53;;;;;;;;;;;16.50;99.90;;;;;;5053445;28;19925;-71
2023/08/28 00:34:21;;;;;;;;;;;16.40;99.90;;;;;;5051167;28;19947;-71
2023/08/28 00:36:49;;;;;;;;;;;16.50;99.90;;;;;;5053817;28;19924;-71
2023/08/28 00:39:17;;;;;;;;;;;16.60;99.90;;;;;;5053925;28;19928;-71
2023/08/28 00:41:45;;;;;;;;;;;16.90;99.90;;;;;;5053469;28;19932;-71
2023/08/28 00:44:14;;;;;;;;;;;17.30;99.90;;;;;;5053867;28;19924;-71
2023/08/28 00:46:41;;;;;;;;;;;17.50;99.90;;;;;;5049853;28;20065;-71
2023/08/28 00:49:09;;;;;;;;;;;17.40;99.90;;;;;;5053198;28;19952;-71
2023/08/28 00:51:38;;;;;;;;;;;17.00;99.90;;;;;;5053751;28;20318;-71
2023/08/28 00:54:07;;;;;;;;;;;16.70;99.90;;;;;;5053631;28;19931;-71
2023/08/28 00:56:35;;;;;;;;;;;16.40;99.90;;;;;;5055686;28;20285;-72
2023/08/28 00:59:03;;;;;;;;;;;16.20;99.90;;;;;;5053422;28;19933;-71
2023/08/28 01:01:32;;;;;;;;;;;16.50;99.90;;;;;;5053058;28;19929;-71
2023/08/28 01:04:00;;;;;;;;;;;16.70;99.90;;;;;;5048623;28;19924;-71
2023/08/28 01:06:33;;;;;;;;;;;17.20;99.90;;;;;;5053282;28;19928;-71
2023/08/28 01:09:04;;;;;;;;;;;17.40;99.90;;;;;;5053222;28;19928;-72
2023/08/28 01:11:34;;;;;;;;;;;17.40;99.90;;;;;;5052949;28;19985;-72
2023/08/28 01:14:04;;;;;;;;;;;17.40;99.90;;;;;;5052508;28;20414;-72
2023/08/28 01:16:35;;;;;;;;;;;17.70;99.90;;;;;;5052569;28;20285;-72
2023/08/28 01:19:05;;;;;;;;;;;17.60;99.90;;;;;;5052372;28;20372;-70
2023/08/28 01:21:33;;;;;;;;;;;17.60;99.90;;;;;;5048585;28;19924;-70
2023/08/28 01:24:03;;;;;;;;;;;17.50;99.90;;;;;;5052924;28;19925;-70
2023/08/28 01:26:33;;;;;;;;;;;17.60;99.90;;;;;;5052889;28;19924;-71
2023/08/28 01:29:00;;;;;;;;;;;17.50;99.90;;;;;;5052823;28;20280;-71
2023/08/28 01:31:28;;;;;;;;;;;17.30;99.90;;;;;;5052433;28;20465;-71
2023/08/28 01:33:56;;;;;;;;;;;17.70;99.90;;;;;;5049424;28;19968;-70
2023/08/28 01:36:26;;;;;;;;;;;17.80;99.90;;;;;;5051393;28;20302;-70
2023/08/28 01:38:58;;;;;;;;;;;17.70;99.90;;;;;;5050388;28;19978;-70
2023/08/28 01:41:26;;;;;;;;;;;17.50;99.90;;;;;;5052544;28;19929;-70
2023/08/28 01:43:58;;;;;;;;;;;17.50;99.90;;;;;;5052457;28;19925;-70
2023/08/28 01:46:26;;;;;;;;;;;17.70;99.90;;;;;;5052811;28;19928;-70
2023/08/28 01:48:54;;;;;;;;;;;17.40;99.90;;;;;;5051986;28;19925;-70
2023/08/28 01:51:22;;;;;;;;;;;17.70;99.90;;;;;;5052235;28;19931;-70
2023/08/28 01:53:51;;;;;;;;;;;17.70;99.90;;;;;;5047291;28;20023;-70
2023/08/28 01:56:18;;;;;;;;;;;17.80;99.90;;;;;;5052183;28;19924;-71
2023/08/28 01:58:47;;;;;;;;;;;18.00;99.90;;;;;;5052201;28;19936;-70
2023/08/28 02:01:16;;;;;;;;;;;17.90;99.90;;;;;;5052004;28;19983;-70
2023/08/28 02:03:44;;;;;;;;;;;17.80;99.90;;;;;;5051546;28;19980;-71
2023/08/28 02:06:12;;;;;;;;;;;17.90;99.90;;;;;;5044146;28;20430;-70
2023/08/28 02:08:40;;;;;;;;;;;17.90;99.90;;;;;;5052223;28;20403;-70
2023/08/28 02:11:08;;;;;;;;;;;17.60;99.90;;;;;;5045078;28;19925;-70
2023/08/28 02:13:35;;;;;;;;;;;17.50;99.90;;;;;;5047388;28;20346;-71
2023/08/28 02:16:04;;;;;;;;;;;17.60;99.90;;;;;;5051917;28;19979;-70
2023/08/28 02:18:33;;;;;;;;;;;17.90;99.90;;;;;;5045834;28;19931;-70
2023/08/28 02:21:01;;;;;;;;;;;17.80;99.90;;;;;;5051792;28;20397;-71
2023/08/28 02:23:29;;;;;;;;;;;17.80;99.90;;;;;;5051798;28;19925;-70
2023/08/28 02:25:57;;;;;;;;;;;17.80;99.90;;;;;;5051450;28;19924;-71
2023/08/28 02:28:25;;;;;;;;;;;17.70;99.90;;;;;;5047452;28;19925;-71
2023/08/28 02:30:53;;;;;;;;;;;17.80;99.90;;;;;;5050226;28;19932;-71
2023/08/28 02:33:21;;;;;;;;;;;17.80;99.90;;;;;;5050919;28;19955;-71
2023/08/28 02:35:50;;;;;;;;;;;17.90;99.90;;;;;;5041827;28;19936;-70
2023/08/28 02:38:18;;;;;;;;;;;17.80;99.90;;;;;;5051780;28;19925;-71
2023/08/28 02:40:46;;;;;;;;;;;17.60;99.90;;;;;;5051173;28;19936;-71
2023/08/28 02:43:14;;;;;;;;;;;17.50;99.90;;;;;;5046900;28;19933;-72
2023/08/28 02:45:42;;;;;;;;;;;17.30;99.90;;;;;;5050891;28;20453;-70
2023/08/28 02:48:10;;;;;;;;;;;17.30;99.90;;;;;;5050680;28;19929;-71
2023/08/28 02:50:37;;;;;;;;;;;17.20;99.90;;;;;;5051507;28;19940;-71
2023/08/28 02:53:07;;;;;;;;;;;17.00;99.90;;;;;;5049463;28;19998;-69
2023/08/28 02:55:38;;;;;;;;;;;17.30;99.90;;;;;;5051278;28;19925;-71
2023/08/28 02:58:05;;;;;;;;;;;17.30;99.90;;;;;;5052009;28;19932;-71
2023/08/28 03:00:34;;;;;;;;;;;17.00;99.90;;;;;;5052297;28;19924;-71
2023/08/28 03:03:01;;;;;;;;;;;16.60;99.90;;;;;;5046569;28;20284;-71
2023/08/28 03:05:30;;;;;;;;;;;16.70;99.90;;;;;;5051938;28;19968;-70
2023/08/28 03:07:58;;;;;;;;;;;16.80;99.90;;;;;;5051228;28;19986;-70
2023/08/28 03:10:27;;;;;;;;;;;16.80;99.90;;;;;;5051721;28;20403;-70
2023/08/28 03:12:58;;;;;;;;;;;17.00;99.90;;;;;;5049108;28;19929;-71
2023/08/28 03:15:26;;;;;;;;;;;17.30;99.90;;;;;;5047722;28;19932;-71
2023/08/28 03:17:54;;;;;;;;;;;17.10;99.90;;;;;;5046859;28;19929;-72
2023/08/28 03:20:21;;;;;;;;;;;16.70;99.90;;;;;;5049396;28;19924;-70
2023/08/28 03:22:49;;;;;;;;;;;16.60;99.90;;;;;;5044047;28;19932;-70
2023/08/28 03:25:17;;;;;;;;;;;16.20;99.90;;;;;;5046067;28;19982;-70
2023/08/28 03:27:46;;;;;;;;;;;16.10;99.90;;;;;;5051830;28;19932;-71
2023/08/28 03:30:14;;;;;;;;;;;16.40;99.90;;;;;;5051901;28;19978;-70
2023/08/28 03:32:42;;;;;;;;;;;16.30;99.90;;;;;;5051063;28;19928;-70
2023/08/28 03:35:08;;;;;;;;;;;16.30;99.90;;;;;;5051743;28;19926;-71
2023/08/28 03:37:36;;;;;;;;;;;16.40;99.90;;;;;;5051674;28;19948;-70
2023/08/28 03:40:04;;;;;;;;;;;16.50;99.90;;;;;;5054534;28;19951;-71
2023/08/28 03:42:32;;;;;;;;;;;16.40;99.90;;;;;;5055000;28;19936;-71
2023/08/28 03:45:01;;;;;;;;;;;16.30;99.90;;;;;;5055322;28;20395;-71
2023/08/28 03:47:29;;;;;;;;;;;15.90;99.90;;;;;;5054810;28;20417;-71
2023/08/28 03:49:57;;;;;;;;;;;15.60;99.90;;;;;;5048190;28;19932;-67
2023/08/28 03:52:25;;;;;;;;;;;15.10;99.90;;;;;;5042266;28;20357;-67
2023/08/28 03:54:53;;;;;;;;;;;14.70;99.90;;;;;;5042858;28;19933;-67
2023/08/28 03:57:21;;;;;;;;;;;14.40;99.90;;;;;;5041549;28;20011;-67
2023/08/28 03:59:49;;;;;;;;;;;14.30;99.90;;;;;;5039726;28;19940;-67
2023/08/28 04:02:19;;;;;;;;;;;14.20;99.90;;;;;;5040413;28;19933;-67
2023/08/28 04:04:47;;;;;;;;;;;14.20;99.90;;;;;;5041523;28;19933;-68
2023/08/28 04:07:32;;;;;;;;;;;14.20;99.90;;;;;;5040165;28;19933;-67
2023/08/28 04:10:00;;;;;;;;;;;14.30;99.90;;;;;;5039911;28;19979;-67
2023/08/28 04:12:28;;;;;;;;;;;14.20;99.90;;;;;;5040652;28;19940;-67
2023/08/28 04:14:57;;;;;;;;;;;14.20;99.90;;;;;;5042736;28;20473;-66
2023/08/28 04:17:26;;;;;;;;;;;14.00;99.90;;;;;;5042420;28;19940;-66
2023/08/28 04:19:55;;;;;;;;;;;13.90;99.90;;;;;;5039955;28;19932;-66
2023/08/28 04:22:23;;;;;;;;;;;13.80;99.90;;;;;;5041733;28;19933;-67
2023/08/28 04:24:52;;;;;;;;;;;13.70;99.90;;;;;;5041678;28;19937;-68
2023/08/28 04:27:19;;;;;;;;;;;13.70;99.90;;;;;;5041192;28;19932;-66
2023/08/28 04:29:47;;;;;;;;;;;13.80;99.90;;;;;;5037230;28;19994;-66
2023/08/28 04:32:15;;;;;;;;;;;13.80;99.90;;;;;;5041001;28;19932;-66
2023/08/28 04:34:45;;;;;;;;;;;13.80;99.90;;;;;;5041126;28;19940;-67
2023/08/28 04:37:12;;;;;;;;;;;13.90;99.90;;;;;;5041807;28;19937;-67
2023/08/28 04:39:40;;;;;;;;;;;13.90;99.90;;;;;;5039460;28;20003;-67
2023/08/28 04:42:08;;;;;;;;;;;14.00;99.90;;;;;;5041625;28;19947;-67
2023/08/28 04:44:36;;;;;;;;;;;14.10;99.90;;;;;;5042188;28;19944;-66
2023/08/28 04:47:04;;;;;;;;;;;14.10;99.90;;;;;;5039380;28;20015;-67
2023/08/28 04:49:32;;;;;;;;;;;14.20;99.90;;;;;;5037503;28;19940;-67
2023/08/28 04:52:02;;;;;;;;;;;14.20;99.90;;;;;;5041247;28;20002;-67
2023/08/28 04:54:30;;;;;;;;;;;14.30;99.90;;;;;;5040059;28;19933;-66
2023/08/28 04:56:58;;;;;;;;;;;14.40;99.90;;;;;;5040014;28;19932;-67
2023/08/28 04:59:25;;;;;;;;;;;14.40;99.90;;;;;;5039039;28;19940;-67
2023/08/28 05:01:53;;;;;;;;;;;14.50;99.90;;;;;;5040108;28;20383;-66
2023/08/28 05:04:21;;;;;;;;;;;14.50;99.90;;;;;;5039932;28;19940;-66
2023/08/28 05:06:49;;;;;;;;;;;14.50;99.90;;;;;;5041294;28;21282;-66
2023/08/28 05:09:18;;;;;;;;;;;14.50;99.90;;;;;;5039610;28;19933;-67
2023/08/28 05:11:46;;;;;;;;;;;14.50;99.90;;;;;;5040110;28;19940;-67
2023/08/28 05:14:14;;;;;;;;;;;14.50;99.90;;;;;;5038219;28;19933;-66
2023/08/28 05:16:41;;;;;;;;;;;14.60;99.90;;;;;;5040361;28;20384;-67
2023/08/28 05:19:09;;;;;;;;;;;14.60;99.90;;;;;;5039483;28;20284;-67
2023/08/28 05:21:37;;;;;;;;;;;14.50;99.90;;;;;;5038849;28;19964;-67
2023/08/28 05:24:05;;;;;;;;;;;14.60;99.90;;;;;;5040283;28;19936;-67
2023/08/28 05:26:34;;;;;;;;;;;14.60;99.90;;;;;;5040382;28;19937;-66
2023/08/28 05:29:02;;;;;;;;;;;14.70;99.90;;;;;;5039722;28;19929;-67
2023/08/28 05:31:30;;;;;;;;;;;14.70;99.90;;;;;;5037491;28;19975;-66
2023/08/28 05:33:58;;;;;;;;;;;14.70;99.90;;;;;;5039540;28;19937;-66
2023/08/28 05:36:26;;;;;;;;;;;14.60;99.90;;;;;;5021557;28;19937;-67
2023/08/28 05:38:54;;;;;;;;;;;14.50;99.90;;;;;;5039520;28;19933;-67
2023/08/28 05:41:21;;;;;;;;;;;14.50;99.90;;;;;;5037317;28;19986;-67
2023/08/28 05:43:50;;;;;;;;;;;14.40;99.90;;;;;;5040111;28;19932;-66
2023/08/28 05:46:18;;;;;;;;;;;14.50;99.90;;;;;;5038481;28;19937;-67
2023/08/28 05:48:46;;;;;;;;;;;14.50;99.90;;;;;;5039499;28;19933;-67
2023/08/28 05:51:14;;;;;;;;;;;14.40;99.90;;;;;;5037339;28;19932;-66
2023/08/28 05:53:41;;;;;;;;;;;14.30;99.90;;;;;;5038050;28;19932;-67
2023/08/28 05:56:12;;;;;;;;;;;14.30;99.90;;;;;;5038433;28;19936;-67
2023/08/28 05:58:39;;;;;;;;;;;14.20;99.90;;;;;;5041714;28;19936;-68
2023/08/28 06:01:09;;;;;;;;;;;14.10;99.90;;;;;;5049926;28;19932;-67
2023/08/28 06:03:37;;;;;;;;;;;14.20;99.90;;;;;;5051547;28;19925;-68
2023/08/28 06:06:05;;;;;;;;;;;14.20;99.90;;;;;;5050809;28;20000;-67
2023/08/28 06:08:32;;;;;;;;;;;14.20;99.90;;;;;;5044432;28;19931;-67
2023/08/28 06:11:00;;;;;;;;;;;14.20;99.90;;;;;;5051803;28;19925;-68
2023/08/28 06:13:28;;;;;;;;;;;14.20;99.90;;;;;;5049385;28;19933;-67
2023/08/28 06:15:56;;;;;;;;;;;14.20;99.90;;;;;;5051564;28;19978;-68
2023/08/28 06:18:25;;;;;;;;;;;14.30;99.90;;;;;;5052223;28;20525;-69
2023/08/28 06:20:53;;;;;;;;;;;14.40;99.90;;;;;;5052197;28;19936;-67
2023/08/28 06:23:21;;;;;;;;;;;14.50;99.90;;;;;;5048344;28;19952;-67
2023/08/28 06:25:49;;;;;;;;;;;14.70;99.90;;;;;;5044803;28;19928;-67
2023/08/28 06:28:17;;;;;;;;;;;14.80;99.90;;;;;;5048549;28;19925;-67
2023/08/28 06:30:45;;;;;;;;;;;14.80;99.90;;;;;;5051501;28;19925;-67
2023/08/28 06:33:13;;;;;;;;;;;15.00;99.90;;;;;;5051667;28;19963;-66
2023/08/28 06:35:42;;;;;;;;;;;15.10;99.90;;;;;;5049515;28;19924;-67
2023/08/28 06:38:10;;;;;;;;;;;15.20;99.90;;;;;;5048456;28;19971;-67
2023/08/28 06:40:38;;;;;;;;;;;15.30;99.90;;;;;;5043804;28;20451;-67
2023/08/28 06:43:06;;;;;;;;;;;15.30;99.90;;;;;;5051694;28;19948;-68
2023/08/28 06:45:34;;;;;;;;;;;15.30;99.90;;;;;;5051338;28;19932;-67
2023/08/28 06:48:02;;;;;;;;;;;15.40;99.90;;;;;;5051884;28;19925;-67
2023/08/28 06:50:30;;;;;;;;;;;15.40;99.90;;;;;;5050843;28;19968;-67
2023/08/28 06:52:59;;;;;;;;;;;15.30;99.90;;;;;;5050817;28;19963;-67
2023/08/28 06:55:27;;;;;;;;;;;15.30;99.90;;;;;;5034499;28;20451;-68
2023/08/28 06:57:55;;;;;;;;;;;15.20;99.90;;;;;;5051615;28;19935;-68
2023/08/28 07:00:23;;;;;;;;;;;15.30;99.90;;;;;;5051227;28;19936;-68
2023/08/28 07:02:53;;;;;;;;;;;15.30;99.90;;;;;;5051587;28;19960;-67
2023/08/28 07:05:21;;;;;;;;;;;15.30;99.90;;;;;;5051255;28;19925;-68
2023/08/28 07:07:49;;;;;;;;;;;15.40;99.90;;;;;;5051153;28;19924;-67
2023/08/28 07:10:18;;;;;;;;;;;15.50;99.90;;;;;;5051404;28;20046;-67
2023/08/28 07:12:46;;;;;;;;;;;15.50;99.90;;;;;;5053922;28;20460;-67
2023/08/28 07:15:38;;;;;;;;;;;15.50;99.90;;;;;;5055347;28;19955;-68
2023/08/28 07:18:05;;;;;;;;;;;15.50;99.90;;;;;;5045444;28;19932;-67
2023/08/28 07:20:34;;;;;;;;;;;15.60;99.90;;;;;;5055416;28;20407;-67
2023/08/28 07:23:02;;;;;;;;;;;15.60;99.90;;;;;;5055003;28;19932;-67
2023/08/28 07:25:31;;;;;;;;;;;15.60;99.90;;;;;;5055251;28;19924;-68
2023/08/28 07:27:59;;;;;;;;;;;15.60;99.90;;;;;;5055417;28;19978;-68
2023/08/28 07:30:27;;;;;;;;;;;15.50;99.90;;;;;;5055090;28;20399;-67
2023/08/28 07:32:55;;;;;;;;;;;15.50;99.90;;;;;;5055380;28;20395;-67
2023/08/28 07:35:23;;;;;;;;;;;15.40;99.90;;;;;;5054717;28;19927;-67
2023/08/28 07:37:50;;;;;;;;;;;15.40;99.90;;;;;;5055088;28;19925;-67
2023/08/28 07:40:18;;;;;;;;;;;15.40;99.90;;;;;;5054804;28;20345;-67
2023/08/28 07:42:47;;;;;;;;;;;15.50;99.90;;;;;;5055147;28;20392;-67
2023/08/28 07:45:15;;;;;;;;;;;15.60;99.90;;;;;;5054825;28;19978;-67
2023/08/28 07:47:43;;;;;;;;;;;15.60;99.90;;;;;;5055065;28;20362;-67
2023/08/28 07:50:12;;;;;;;;;;;15.80;99.90;;;;;;5054984;28;20395;-68
2023/08/28 07:52:41;;;;;;;;;;;15.90;99.90;;;;;;5054880;28;19924;-68
2023/08/28 07:55:09;;;;;;;;;;;16.00;99.90;;;;;;5054690;28;19925;-67
2023/08/28 07:57:37;;;;;;;;;;;16.20;99.90;;;;;;5054462;28;19928;-67
2023/08/28 08:00:13;;;;;;;;;;;16.30;99.90;;;;;;5053949;28;21388;-68
2023/08/28 08:02:41;;;;;;;;;;;16.30;99.90;;;;;;5054486;28;19932;-67
2023/08/28 08:05:10;;;;;;;;;;;16.30;99.90;;;;;;5054558;28;20421;-68
2023/08/28 08:07:40;;;;;;;;;;;16.30;99.90;;;;;;5054570;28;19939;-67
2023/08/28 08:10:08;;;;;;;;;;;16.40;99.90;;;;;;5054607;28;19925;-67
2023/08/28 08:12:37;;;;;;;;;;;16.40;99.90;;;;;;5029633;28;19925;-67
2023/08/28 08:15:06;;;;;;;;;;;16.40;99.90;;;;;;5054219;28;20407;-67
2023/08/28 08:17:36;;;;;;;;;;;16.40;99.90;;;;;;5054306;28;20011;-68
2023/08/28 08:20:05;;;;;;;;;;;16.50;99.90;;;;;;5054311;28;20479;-67
2023/08/28 08:22:37;;;;;;;;;;;16.60;99.90;;;;;;5054244;28;20358;-67
2023/08/28 08:25:06;;;;;;;;;;;16.70;99.90;;;;;;5053599;28;19932;-67
2023/08/28 08:27:34;;;;;;;;;;;16.80;99.90;;;;;;5053207;28;20863;-67
2023/08/28 08:30:02;;;;;;;;;;;16.80;99.90;;;;;;5053810;28;19979;-67
2023/08/28 08:32:30;;;;;;;;;;;16.90;99.90;;;;;;5054034;28;20359;-68
2023/08/28 08:34:59;;;;;;;;;;;17.10;99.90;;;;;;5053803;28;20009;-67
2023/08/28 08:37:28;;;;;;;;;;;17.40;99.90;;;;;;5053975;28;19932;-68
2023/08/28 08:39:55;;;;;;;;;;;17.60;99.90;;;;;;5053928;28;19948;-67
2023/08/28 08:42:23;;;;;;;;;;;17.70;99.90;;;;;;5053801;28;19947;-67
2023/08/28 08:44:51;;;;;;;;;;;17.80;99.90;;;;;;5053787;28;19928;-67
2023/08/28 08:47:19;;;;;;;;;;;17.80;99.90;;;;;;5052012;28;19925;-67
2023/08/28 08:49:50;;;;;;;;;;;17.90;99.90;;;;;;5051997;28;19978;-67
2023/08/28 08:52:21;;;;;;;;;;;18.10;99.90;;;;;;5049146;28;20407;-67
2023/08/28 08:54:53;;;;;;;;;;;18.10;99.90;;;;;;5053616;28;19933;-67
2023/08/28 08:57:24;;;;;;;;;;;18.20;99.90;;;;;;5053621;28;19932;-68
2023/08/28 08:59:53;;;;;;;;;;;18.20;99.90;;;;;;5053623;28;19978;-67
2023/08/28 09:02:21;;;;;;;;;;;18.20;99.90;;;;;;5053464;28;19932;-67
2023/08/28 09:04:49;;;;;;;;;;;18.20;99.90;;;;;;5045711;28;19936;-67
2023/08/28 09:07:18;;;;;;;;;;;18.10;99.90;;;;;;5049089;28;19933;-67
2023/08/28 09:09:47;;;;;;;;;;;18.10;99.90;;;;;;5053344;28;19932;-67
2023/08/28 09:12:16;;;;;;;;;;;18.20;99.90;;;;;;5053260;28;19971;-67
2023/08/28 09:14:44;;;;;;;;;;;18.20;99.90;;;;;;5053203;28;19932;-66
2023/08/28 09:17:12;;;;;;;;;;;18.10;99.90;;;;;;5053207;28;20403;-67
2023/08/28 09:19:40;;;;;;;;;;;18.00;99.90;;;;;;5053162;28;20323;-66
2023/08/28 09:22:08;;;;;;;;;;;18.10;99.90;;;;;;5048238;28;20430;-68
2023/08/28 09:24:37;;;;;;;;;;;18.30;99.90;;;;;;5053074;28;19929;-67
2023/08/28 09:27:06;;;;;;;;;;;18.30;99.90;;;;;;5053215;28;19986;-67
2023/08/28 09:29:38;;;;;;;;;;;18.30;99.90;;;;;;5053609;28;20335;-67
2023/08/28 09:32:06;;;;;;;;;;;18.40;99.90;;;;;;5052659;28;19924;-67
2023/08/28 09:34:38;;;;;;;;;;;18.50;99.90;;;;;;5052867;28;20411;-66
2023/08/28 09:37:09;;;;;;;;;;;18.30;99.90;;;;;;5051216;28;20410;-66
2023/08/28 09:39:40;;;;;;;;;;;18.40;99.90;;;;;;5053293;28;19924;-66
2023/08/28 09:42:10;;;;;;;;;;;18.30;99.90;;;;;;5052971;28;20344;-66
2023/08/28 09:44:38;;;;;;;;;;;18.50;99.90;;;;;;5052683;28;19925;-67
2023/08/28 09:47:06;;;;;;;;;;;18.60;99.90;;;;;;5052692;28;19932;-66
2023/08/28 09:49:42;;;;;;;;;;;18.70;99.90;;;;;;5052701;28;19955;-66
2023/08/28 09:52:11;;;;;;;;;;;18.80;99.90;;;;;;5051697;28;19925;-66
2023/08/28 09:54:39;;;;;;;;;;;18.90;99.90;;;;;;5052390;28;19971;-66
2023/08/28 09:57:16;;;;;;;;;;;19.00;99.90;;;;;;5052135;28;19932;-66
2023/08/28 09:59:44;;;;;;;;;;;19.00;99.90;;;;;;5052345;28;19929;-67
2023/08/28 10:02:13;;;;;;;;;;;19.00;99.90;;;;;;5052433;28;19935;-66
2023/08/28 10:04:50;;;;;;;;;;;19.00;99.90;;;;;;5052472;28;19996;-67
2023/08/28 10:07:22;;;;;;;;;;;18.80;99.90;;;;;;5042999;28;19925;-66
2023/08/28 10:09:51;;;;;;;;;;;19.10;99.90;;;;;;5051587;28;19986;-66
2023/08/28 10:12:21;;;;;;;;;;;19.10;99.90;;;;;;5052065;28;19928;-66
2023/08/28 10:14:50;;;;;;;;;;;19.20;99.90;;;;;;5052161;28;19925;-66
2023/08/28 10:17:18;;;;;;;;;;;19.30;99.90;;;;;;5052106;28;19932;-66
2023/08/28 10:19:48;;;;;;;;;;;19.40;99.90;;;;;;5051968;28;19928;-66
2023/08/28 10:22:16;;;;;;;;;;;19.40;99.90;;;;;;5048850;28;20350;-66
2023/08/28 10:24:44;;;;;;;;;;;19.40;99.90;;;;;;5043838;28;20420;-66
2023/08/28 10:27:14;;;;;;;;;;;19.70;99.90;;;;;;5052001;28;19928;-66
2023/08/28 10:29:44;;;;;;;;;;;20.00;99.90;;;;;;5052278;28;19925;-66
2023/08/28 10:32:13;;;;;;;;;;;20.40;99.90;;;;;;5051932;28;19932;-67
2023/08/28 10:34:42;;;;;;;;;;;20.60;99.90;;;;;;5051722;28;19931;-67
2023/08/28 10:37:10;;;;;;;;;;;20.50;99.90;;;;;;5049096;28;19963;-66
2023/08/28 10:39:56;;;;;;;;;;;20.70;99.90;;;;;;5051575;28;19936;-66
2023/08/28 10:42:26;;;;;;;;;;;20.40;99.90;;;;;;5051340;28;20354;-66
2023/08/28 10:44:56;;;;;;;;;;;20.20;99.90;;;;;;5051547;28;19979;-67
2023/08/28 10:47:26;;;;;;;;;;;20.20;99.90;;;;;;5051790;28;19924;-66
2023/08/28 10:49:54;;;;;;;;;;;20.30;99.90;;;;;;5051552;28;20367;-66
2023/08/28 10:52:22;;;;;;;;;;;20.30;99.90;;;;;;5046564;28;19932;-67
2023/08/28 10:54:50;;;;;;;;;;;20.30;99.90;;;;;;5050559;28;19932;-67
2023/08/28 10:57:22;;;;;;;;;;;20.00;99.90;;;;;;5051194;28;19936;-66
2023/08/28 10:59:50;;;;;;;;;;;20.00;99.90;;;;;;5051492;28;19924;-66
2023/08/28 11:02:20;;;;;;;;;;;20.20;99.90;;;;;;5051111;28;20395;-66
2023/08/28 11:04:48;;;;;;;;;;;20.40;99.90;;;;;;5051498;28;19936;-67
2023/08/28 11:07:34;;;;;;;;;;;20.50;99.90;;;;;;5046449;28;19925;-66
2023/08/28 11:10:21;;;;;;;;;;;20.50;99.90;;;;;;5044130;28;19933;-66
2023/08/28 11:12:54;;;;;;;;;;;20.10;99.90;;;;;;5051096;28;20429;-66
2023/08/28 11:15:31;;;;;;;;;;;20.00;99.90;;;;;;5051374;28;19929;-66
2023/08/28 11:18:19;;;;;;;;;;;20.00;99.90;;;;;;5051329;28;19928;-66
2023/08/28 11:20:47;;;;;;;;;;;20.00;99.90;;;;;;5051100;28;19994;-66
2023/08/28 11:23:22;;;;;;;;;;;19.90;99.90;;;;;;5050991;28;19928;-66
2023/08/28 11:25:51;;;;;;;;;;;19.70;99.90;;;;;;5051235;28;20441;-66
2023/08/28 11:28:26;;;;;;;;;;;19.70;99.90;;;;;;5051359;28;20362;-66
2023/08/28 11:30:57;;;;;;;;;;;19.90;99.90;;;;;;5050388;28;19925;-67
2023/08/28 11:33:27;;;;;;;;;;;19.80;99.90;;;;;;5051599;28;20015;-66
2023/08/28 11:35:58;;;;;;;;;;;19.80;99.90;;;;;;5051126;28;19978;-66
2023/08/28 11:38:26;;;;;;;;;;;19.70;99.90;;;;;;5050573;28;19925;-66
2023/08/28 11:40:54;;;;;;;;;;;19.90;99.90;;;;;;5049612;28;19947;-66
2023/08/28 11:43:23;;;;;;;;;;;20.00;99.90;;;;;;5051013;28;19978;-66
2023/08/28 11:45:56;;;;;;;;;;;20.10;99.90;;;;;;5051041;28;20047;-66
2023/08/28 11:48:23;;;;;;;;;;;20.10;99.90;;;;;;5051364;28;19925;-67
2023/08/28 11:50:57;;;;;;;;;;;20.00;99.90;;;;;;5050592;28;19929;-66
2023/08/28 11:53:29;;;;;;;;;;;20.00;99.90;;;;;;5049267;28;19932;-66
2023/08/28 11:55:57;;;;;;;;;;;20.10;99.90;;;;;;5050459;28;20376;-66
2023/08/28 11:58:24;;;;;;;;;;;20.10;99.90;;;;;;5051123;28;19966;-66
2023/08/28 12:00:52;;;;;;;;;;;20.00;99.90;;;;;;5054307;28;20401;-67
2023/08/28 12:03:20;;;;;;;;;;;20.00;99.90;;;;;;5054802;28;19925;-66
2023/08/28 12:05:48;;;;;;;;;;;19.90;99.90;;;;;;5054641;28;19929;-66
2023/08/28 12:08:17;;;;;;;;;;;19.90;99.90;;;;;;5053852;28;19924;-66
2023/08/28 12:10:45;;;;;;;;;;;20.10;99.90;;;;;;5054199;28;19929;-66
2023/08/28 12:13:18;;;;;;;;;;;20.10;99.90;;;;;;5054514;28;19995;-66
2023/08/28 12:15:46;;;;;;;;;;;20.10;99.90;;;;;;5054386;28;19929;-66
2023/08/28 12:18:14;;;;;;;;;;;20.00;99.90;;;;;;5054678;28;19947;-66
2023/08/28 12:20:42;;;;;;;;;;;20.00;99.90;;;;;;5054053;28;20414;-66
2023/08/28 12:23:12;;;;;;;;;;;20.20;99.90;;;;;;5050562;28;19932;-66
2023/08/28 12:25:43;;;;;;;;;;;20.20;99.90;;;;;;5054261;28;19932;-67
2023/08/28 12:28:11;;;;;;;;;;;20.30;99.90;;;;;;5054261;28;20012;-66
2023/08/28 12:30:40;;;;;;;;;;;20.30;99.90;;;;;;5054085;28;20022;-66
2023/08/28 12:33:08;;;;;;;;;;;20.30;99.90;;;;;;5045925;28;20088;-66
2023/08/28 12:35:37;;;;;;;;;;;20.30;99.90;;;;;;5054235;28;19935;-66
2023/08/28 12:38:05;;;;;;;;;;;20.30;99.90;;;;;;5049920;28;19935;-66
2023/08/28 12:40:35;;;;;;;;;;;20.30;99.90;;;;;;5053882;28;19925;-66
2023/08/28 12:43:08;;;;;;;;;;;20.40;99.90;;;;;;5053580;28;19933;-66
2023/08/28 12:45:36;;;;;;;;;;;20.30;99.90;;;;;;5053927;28;19925;-66
2023/08/28 12:48:04;;;;;;;;;;;20.40;99.90;;;;;;5053834;28;19928;-67
2023/08/28 12:50:32;;;;;;;;;;;20.60;99.90;;;;;;5053711;28;19925;-66
2023/08/28 12:53:00;;;;;;;;;;;20.60;99.90;;;;;;5048685;28;19925;-66
2023/08/28 12:55:28;;;;;;;;;;;20.60;99.90;;;;;;5053563;28;19932;-66
2023/08/28 12:57:56;;;;;;;;;;;20.50;99.90;;;;;;5053688;28;19929;-66
2023/08/28 13:00:25;;;;;;;;;;;20.50;99.90;;;;;;5052729;28;20421;-66
2023/08/28 13:02:54;;;;;;;;;;;20.70;99.90;;;;;;5053272;28;19929;-67
2023/08/28 13:05:22;;;;;;;;;;;20.90;99.90;;;;;;5053526;28;20403;-66
2023/08/28 13:07:49;;;;;;;;;;;20.90;99.90;;;;;;5053405;28;19982;-66
2023/08/28 13:10:17;;;;;;;;;;;20.90;99.90;;;;;;5051444;28;20023;-66
2023/08/28 13:12:45;;;;;;;;;;;21.00;99.90;;;;;;5053197;28;19925;-67
2023/08/28 13:15:13;;;;;;;;;;;21.00;99.90;;;;;;5053454;28;20395;-67
2023/08/28 13:17:42;;;;;;;;;;;21.20;99.90;;;;;;5053380;28;20006;-67
2023/08/28 13:20:10;;;;;;;;;;;21.50;99.90;;;;;;5052074;28;20011;-66
2023/08/28 13:22:38;;;;;;;;;;;21.30;99.90;;;;;;5053006;28;19924;-66
2023/08/28 13:25:06;;;;;;;;;;;21.20;99.90;;;;;;5053165;28;19925;-66
2023/08/28 13:27:34;;;;;;;;;;;21.00;99.90;;;;;;5035125;28;20413;-66
2023/08/28 13:30:03;;;;;;;;;;;20.80;99.90;;;;;;5053004;28;19925;-66
2023/08/28 13:32:31;;;;;;;;;;;20.80;99.90;;;;;;5052794;28;20011;-66
2023/08/28 13:35:00;;;;;;;;;;;21.00;99.90;;;;;;5049733;28;19932;-67
2023/08/28 13:37:28;;;;;;;;;;;21.00;99.90;;;;;;5052765;28;19925;-67
2023/08/28 13:39:56;;;;;;;;;;;21.10;99.90;;;;;;5052815;28;19925;-67
2023/08/28 13:42:24;;;;;;;;;;;21.20;99.90;;;;;;5051851;28;20351;-67
2023/08/28 13:44:52;;;;;;;;;;;21.20;99.90;;;;;;5052879;28;19928;-67
2023/08/28 13:47:19;;;;;;;;;;;20.90;99.90;;;;;;5052715;28;19936;-66
2023/08/28 13:49:47;;;;;;;;;;;20.90;99.90;;;;;;5052875;28;19932;-67
2023/08/28 13:52:16;;;;;;;;;;;21.00;99.90;;;;;;5048087;28;19951;-66
2023/08/28 13:54:45;;;;;;;;;;;21.00;99.90;;;;;;5053168;28;20123;-66
2023/08/28 13:57:12;;;;;;;;;;;20.90;99.90;;;;;;5052169;28;19924;-66
2023/08/28 13:59:40;;;;;;;;;;;20.80;99.90;;;;;;5052489;28;20391;-66
2023/08/28 14:02:08;;;;;;;;;;;20.60;99.90;;;;;;5051784;28;19963;-67
2023/08/28 14:04:36;;;;;;;;;;;20.50;99.90;;;;;;5052691;28;19933;-66
2023/08/28 14:07:04;;;;;;;;;;;20.40;99.90;;;;;;5045339;28;19929;-66
2023/08/28 14:09:33;;;;;;;;;;;20.30;99.90;;;;;;5052364;28;19925;-67
2023/08/28 14:12:01;;;;;;;;;;;20.30;99.90;;;;;;5051867;28;20396;-67
2023/08/28 14:14:29;;;;;;;;;;;20.30;99.90;;;;;;5052336;28;20018;-66
2023/08/28 14:16:57;;;;;;;;;;;20.20;99.90;;;;;;5051451;28;19924;-66
2023/08/28 14:19:24;;;;;;;;;;;20.20;99.90;;;;;;5052107;28;19925;-67
2023/08/28 14:21:52;;;;;;;;;;;20.30;99.90;;;;;;5051311;28;20249;-66
2023/08/28 14:24:20;;;;;;;;;;;20.30;99.90;;;;;;5052135;28;19982;-66
2023/08/28 14:26:49;;;;;;;;;;;20.30;99.90;;;;;;5052018;28;19925;-66